Terminal Aerodrome Forecast
Issued by NWS

Home | Current Version | Previous Version | Text Only | Print | Product List | Glossary On
Versions: 1 2 3 4 5 6 7 8 9 10 11 12
000
FTUS42 TJSJ 051120
TAFJPS
TAF
TJPS 051120Z 0512/0612 05005KT P6SM FEW030
     FM051300 14010KT P6SM FEW030
     FM051700 15010KT P6SM VCSH SCT030 SCT060
     FM052330 06006KT P6SM FEW030
      AMD NOT SKED TIL 060300=

USA.gov is the U.S. government's official web portal to all federal, state and local government web resources and services.